createdAt,value
2022-08-11T00:00:10.247Z,24.44
2022-08-11T00:01:15.120Z,24.28
2022-08-11T00:02:15.129Z,24.05
2022-08-11T00:03:14.720Z,24.14
2022-08-11T00:04:13.452Z,24.63
2022-08-11T00:05:15.154Z,24.81
2022-08-11T00:06:14.651Z,24.68
2022-08-11T00:07:11.941Z,24.31
2022-08-11T00:08:11.423Z,22.01
2022-08-11T00:09:11.721Z,22.44
2022-08-11T00:10:22.176Z,23.41
2022-08-11T00:11:21.282Z,24.01
2022-08-11T00:12:18.394Z,23.96
2022-08-11T00:13:16.809Z,24.65
2022-08-11T00:14:36.737Z,24.62
2022-08-11T00:15:42.962Z,24.48
2022-08-11T00:16:42.152Z,24.68
2022-08-11T00:17:39.847Z,24.57
2022-08-11T00:18:47.104Z,23.79
2022-08-11T00:20:12.863Z,24.71
2022-08-11T00:21:04.272Z,24.71
2022-08-11T00:22:06.185Z,24.88
2022-08-11T00:23:17.441Z,24.61
2022-08-11T00:24:17.267Z,24.57
2022-08-11T00:25:22.122Z,24.03
2022-08-11T00:26:20.487Z,23.81
2022-08-11T00:27:17.512Z,24.02
2022-08-11T00:28:43.476Z,24.11
2022-08-11T00:29:51.854Z,23.68
2022-08-11T00:30:52.033Z,24.32
2022-08-11T00:31:55.040Z,24.67
2022-08-11T00:33:00.798Z,24.81
2022-08-11T00:34:00.493Z,24.00
2022-08-11T00:35:51.760Z,24.12
2022-08-11T00:36:24.875Z,23.97
2022-08-11T00:37:24.186Z,24.68
2022-08-11T00:38:26.163Z,24.78
2022-08-11T00:39:28.624Z,24.57
2022-08-11T00:40:58.792Z,24.65
2022-08-11T00:41:58.260Z,24.43
2022-08-11T00:43:20.517Z,24.28
2022-08-11T00:44:36.171Z,24.33
2022-08-11T00:45:43.227Z,24.27
2022-08-11T00:47:13.622Z,24.70
2022-08-11T00:48:33.561Z,24.64
2022-08-11T00:49:42.106Z,24.31
2022-08-11T00:51:10.891Z,24.71
2022-08-11T00:52:50.716Z,24.82
2022-08-11T00:54:17.305Z,24.85
2022-08-11T00:55:39.216Z,24.27
2022-08-11T00:57:37.219Z,24.45
2022-08-11T00:58:36.250Z,22.61
2022-08-11T00:59:48.446Z,23.59
2022-08-11T01:01:16.121Z,24.01
2022-08-11T01:02:39.537Z,24.57
2022-08-11T01:04:30.279Z,23.07
2022-08-11T01:05:38.837Z,24.65
2022-08-11T01:06:50.264Z,24.76
2022-08-11T01:08:21.028Z,24.74
2022-08-11T01:09:36.068Z,24.76
2022-08-11T01:11:09.859Z,24.76
2022-08-11T01:12:32.618Z,24.12
2022-08-11T01:13:38.350Z,24.37
2022-08-11T01:14:40.730Z,23.43
2022-08-11T01:15:37.870Z,23.87
2022-08-11T01:17:04.062Z,24.39
2022-08-11T01:18:31.339Z,23.84
2022-08-11T01:20:46.240Z,22.58
2022-08-11T01:22:00.541Z,23.03
2022-08-11T01:23:33.752Z,22.33
2022-08-11T01:24:55.023Z,23.80
2022-08-11T01:25:57.567Z,23.98
2022-08-11T01:26:57.628Z,22.62
2022-08-11T01:28:03.209Z,22.84
2022-08-11T01:29:18.240Z,23.08
2022-08-11T01:30:47.136Z,23.61
2022-08-11T01:32:14.956Z,23.26
2022-08-11T01:33:34.625Z,23.11
2022-08-11T01:35:08.873Z,24.04
2022-08-11T01:36:34.586Z,23.60
2022-08-11T01:38:21.969Z,22.68
2022-08-11T01:39:52.776Z,22.69
2022-08-11T01:41:15.531Z,23.28
2022-08-11T01:42:49.429Z,22.82
2022-08-11T01:44:38.572Z,23.51
2022-08-11T01:45:46.410Z,24.23
2022-08-11T01:46:58.044Z,24.49
2022-08-11T01:48:41.439Z,23.33
2022-08-11T01:50:09.574Z,23.84
2022-08-11T01:51:58.471Z,24.00
2022-08-11T01:53:25.995Z,24.11
2022-08-11T01:54:52.601Z,24.27
2022-08-11T01:56:15.405Z,24.01
2022-08-11T01:57:42.246Z,24.12
2022-08-11T01:58:49.191Z,24.06
2022-08-11T01:59:51.908Z,24.64
2022-08-11T02:01:05.933Z,24.66
2022-08-11T02:02:41.904Z,24.70
2022-08-11T02:03:55.285Z,24.38
2022-08-11T02:05:22.978Z,23.95
2022-08-11T02:06:50.196Z,24.60
2022-08-11T02:08:00.366Z,24.54
2022-08-11T02:09:05.618Z,24.55
2022-08-11T02:10:42.463Z,24.74
2022-08-11T02:11:56.380Z,21.64
2022-08-11T02:13:20.791Z,22.98
2022-08-11T02:15:11.093Z,23.70
2022-08-11T02:16:13.751Z,24.40
2022-08-11T02:17:22.995Z,23.52
2022-08-11T02:18:55.243Z,24.20
2022-08-11T02:20:24.147Z,23.16
2022-08-11T02:22:17.967Z,22.38
2022-08-11T02:24:03.868Z,22.40
2022-08-11T02:25:04.839Z,21.77
2022-08-11T02:26:09.731Z,23.33
2022-08-11T02:27:23.426Z,22.99
2022-08-11T02:28:45.071Z,24.18
2022-08-11T02:29:46.368Z,22.77
2022-08-11T02:32:15.632Z,22.04
2022-08-11T02:33:14.427Z,22.48
2022-08-11T02:34:31.332Z,22.85
2022-08-11T02:35:42.925Z,23.59
2022-08-11T02:37:24.428Z,22.42
2022-08-11T02:38:32.406Z,23.57
2022-08-11T02:39:43.006Z,21.71
2022-08-11T02:40:50.443Z,22.24
2022-08-11T02:42:32.892Z,23.40
2022-08-11T02:44:06.691Z,23.34
2022-08-11T02:45:12.408Z,23.24
2022-08-11T02:46:24.673Z,22.48
2022-08-11T02:48:21.837Z,22.88
2022-08-11T02:50:02.540Z,22.02
2022-08-11T02:51:30.449Z,23.40
2022-08-11T02:52:32.900Z,22.83
2022-08-11T02:53:56.501Z,22.10
2022-08-11T02:55:47.973Z,23.22
2022-08-11T02:57:01.123Z,23.05
2022-08-11T02:58:10.198Z,21.85
2022-08-11T02:59:41.504Z,22.47
2022-08-11T03:01:13.565Z,22.40
2022-08-11T03:02:31.405Z,20.13
2022-08-11T03:03:47.770Z,21.33
2022-08-11T03:05:11.927Z,21.85
2022-08-11T03:06:31.486Z,21.63
2022-08-11T03:07:39.971Z,21.76
2022-08-11T03:08:52.546Z,22.38
2022-08-11T03:10:20.145Z,23.13
2022-08-11T03:12:06.882Z,23.39
2022-08-11T03:13:52.519Z,23.23
2022-08-11T03:15:10.768Z,23.79
2022-08-11T03:16:37.278Z,23.86
2022-08-11T03:17:52.963Z,23.62
2022-08-11T03:19:04.195Z,23.46
2022-08-11T03:20:15.665Z,23.99
2022-08-11T03:21:24.345Z,23.18
2022-08-11T03:23:02.605Z,24.15
2022-08-11T03:24:11.045Z,24.26
2022-08-11T03:25:31.848Z,24.47
2022-08-11T03:26:56.311Z,24.43
2022-08-11T03:28:04.404Z,23.97
2022-08-11T03:29:25.948Z,24.20
2022-08-11T03:30:39.902Z,23.64
2022-08-11T03:31:58.543Z,24.42
2022-08-11T03:33:42.708Z,24.36
2022-08-11T03:34:45.578Z,23.97
2022-08-11T03:35:59.376Z,24.28
2022-08-11T03:37:45.811Z,24.38
2022-08-11T03:39:09.149Z,24.28
2022-08-11T03:40:56.501Z,24.33
2022-08-11T03:42:20.941Z,23.53
2022-08-11T03:43:26.833Z,22.51
2022-08-11T03:44:37.920Z,22.37
2022-08-11T03:45:43.119Z,22.29
2022-08-11T03:47:00.697Z,23.70
2022-08-11T03:48:07.084Z,21.88
2022-08-11T03:49:23.957Z,22.23
2022-08-11T03:51:05.071Z,22.75
2022-08-11T03:52:22.247Z,23.11
2022-08-11T03:53:28.285Z,22.64
2022-08-11T03:55:10.868Z,23.17
2022-08-11T03:56:16.879Z,23.34
2022-08-11T03:57:37.777Z,23.80
2022-08-11T03:59:17.232Z,23.88
2022-08-11T04:00:25.838Z,23.74
2022-08-11T04:01:53.203Z,23.65
2022-08-11T04:03:17.011Z,23.68
2022-08-11T04:04:51.801Z,23.71
2022-08-11T04:06:09.245Z,23.61
2022-08-11T04:07:17.520Z,23.99
2022-08-11T04:08:34.303Z,23.98
2022-08-11T04:10:07.367Z,24.17
2022-08-11T04:11:22.656Z,24.40
2022-08-11T04:12:38.014Z,24.50
2022-08-11T04:14:29.108Z,22.18
2022-08-11T04:16:00.911Z,20.55
2022-08-11T04:17:41.099Z,22.11
2022-08-11T04:19:13.048Z,22.84
2022-08-11T04:20:31.234Z,21.65
2022-08-11T04:21:49.406Z,22.32
2022-08-11T04:24:35.438Z,21.74
2022-08-11T04:25:11.860Z,22.07
2022-08-11T04:26:20.271Z,22.55
2022-08-11T04:27:20.264Z,22.56
2022-08-11T04:28:35.127Z,22.48
2022-08-11T04:30:05.474Z,23.19
2022-08-11T04:31:51.877Z,23.85
2022-08-11T04:32:49.602Z,23.75
2022-08-11T04:34:14.412Z,23.79
2022-08-11T04:35:33.004Z,24.04
2022-08-11T04:37:00.233Z,24.11
2022-08-11T04:38:15.662Z,23.98
2022-08-11T04:39:46.598Z,24.10
2022-08-11T04:41:15.202Z,23.77
2022-08-11T04:42:49.542Z,23.99
2022-08-11T04:44:14.128Z,21.68
2022-08-11T04:45:35.496Z,22.88
2022-08-11T04:46:59.537Z,21.44
2022-08-11T04:48:44.805Z,21.04
2022-08-11T04:50:15.076Z,21.35
2022-08-11T04:51:58.506Z,21.22
2022-08-11T04:53:55.776Z,21.82
2022-08-11T04:55:37.736Z,20.96
2022-08-11T04:56:58.858Z,23.25
2022-08-11T04:58:31.765Z,22.17
2022-08-11T05:00:22.477Z,24.06
2022-08-11T05:01:43.987Z,21.72
2022-08-11T05:03:08.472Z,22.71
2022-08-11T05:04:41.841Z,22.55
2022-08-11T05:06:10.553Z,21.43
2022-08-11T05:07:22.156Z,22.89
2022-08-11T05:08:27.577Z,23.35
2022-08-11T05:09:37.501Z,23.81
2022-08-11T05:10:52.214Z,22.59
2022-08-11T05:12:16.414Z,21.36
2022-08-11T05:13:49.207Z,21.49
2022-08-11T05:15:12.472Z,22.06
2022-08-11T05:16:32.039Z,21.06
2022-08-11T05:17:55.940Z,21.58
2022-08-11T05:19:16.337Z,22.57
2022-08-11T05:20:33.357Z,21.79
2022-08-11T05:21:53.747Z,20.84
2022-08-11T05:23:23.888Z,20.20
2022-08-11T05:24:43.234Z,20.99
2022-08-11T05:26:43.909Z,20.08
2022-08-11T05:27:51.666Z,20.93
2022-08-11T05:29:21.264Z,21.60
2022-08-11T05:30:37.531Z,22.42
2022-08-11T05:31:56.701Z,23.39
2022-08-11T05:33:21.983Z,22.06
2022-08-11T05:34:45.976Z,20.48
2022-08-11T05:36:01.915Z,21.40
2022-08-11T05:37:25.658Z,21.31
2022-08-11T05:38:45.746Z,20.25
2022-08-11T05:40:08.859Z,21.84
2022-08-11T05:41:27.271Z,22.60
2022-08-11T05:42:45.064Z,21.55
2022-08-11T05:44:19.618Z,22.87
2022-08-11T05:45:57.263Z,21.05
2022-08-11T05:47:14.488Z,23.34
2022-08-11T05:48:31.526Z,23.05
2022-08-11T05:49:50.772Z,22.90
2022-08-11T05:51:11.565Z,22.42
2022-08-11T05:52:41.610Z,23.18
2022-08-11T05:54:27.928Z,21.07
2022-08-11T05:56:01.923Z,21.29
2022-08-11T05:57:03.489Z,23.13
2022-08-11T05:58:07.495Z,22.17
2022-08-11T05:59:05.215Z,20.90
2022-08-11T06:00:10.400Z,21.97
2022-08-11T06:01:08.274Z,20.76
2022-08-11T06:02:08.749Z,23.11
2022-08-11T06:03:07.548Z,22.46
2022-08-11T06:04:16.727Z,23.29
2022-08-11T06:05:14.360Z,23.98
2022-08-11T06:07:48.867Z,23.52
2022-08-11T06:08:47.982Z,21.74
2022-08-11T06:09:44.638Z,21.15
2022-08-11T06:10:44.761Z,21.58
2022-08-11T06:11:44.981Z,20.54
2022-08-11T06:12:43.599Z,21.15
2022-08-11T06:13:47.888Z,20.48
2022-08-11T06:14:46.333Z,21.30
2022-08-11T06:15:52.987Z,22.37
2022-08-11T06:17:01.887Z,23.24
2022-08-11T06:18:01.432Z,22.89
2022-08-11T06:18:59.624Z,22.39
2022-08-11T06:20:07.090Z,22.32
2022-08-11T06:21:11.221Z,22.30
2022-08-11T06:22:12.463Z,21.32
2022-08-11T06:23:10.899Z,20.84
2022-08-11T06:24:14.786Z,21.46
2022-08-11T06:25:16.073Z,21.79
2022-08-11T06:26:15.496Z,21.67
2022-08-11T06:27:25.043Z,23.35
2022-08-11T06:28:32.714Z,21.91
2022-08-11T06:29:37.966Z,21.22
2022-08-11T06:30:47.063Z,22.42
2022-08-11T06:31:55.726Z,21.47
2022-08-11T06:32:55.482Z,22.64
2022-08-11T06:34:28.521Z,22.07
2022-08-11T06:35:56.391Z,22.45
2022-08-11T06:37:07.200Z,22.96
2022-08-11T06:38:16.165Z,23.81
2022-08-11T06:39:31.834Z,24.28
2022-08-11T06:41:09.045Z,23.05
2022-08-11T06:42:14.200Z,23.12
2022-08-11T06:43:30.734Z,23.01
2022-08-11T06:45:16.938Z,22.63
2022-08-11T06:46:24.772Z,24.04
2022-08-11T06:47:28.093Z,23.52
2022-08-11T06:48:26.241Z,23.68
2022-08-11T06:49:52.893Z,23.30
2022-08-11T06:51:14.518Z,23.04
2022-08-11T06:52:34.333Z,23.03
2022-08-11T06:53:34.885Z,22.03
2022-08-11T06:54:41.451Z,22.34
2022-08-11T06:56:03.478Z,22.21
2022-08-11T06:57:30.848Z,22.03
2022-08-11T06:59:17.312Z,22.90
2022-08-11T07:00:30.402Z,23.52
2022-08-11T07:01:48.576Z,23.04
2022-08-11T07:02:56.198Z,23.16
2022-08-11T07:04:09.150Z,23.36
2022-08-11T07:05:20.109Z,23.31
2022-08-11T07:06:41.593Z,22.86
2022-08-11T07:08:33.827Z,23.86
2022-08-11T07:10:16.878Z,23.66
2022-08-11T07:12:07.630Z,23.50
2022-08-11T07:13:44.416Z,21.83
2022-08-11T07:15:10.106Z,23.54
2022-08-11T07:16:13.122Z,24.44
2022-08-11T07:17:17.451Z,24.04
2022-08-11T07:18:44.904Z,24.59
2022-08-11T07:20:06.075Z,23.44
2022-08-11T07:22:02.495Z,23.63
2022-08-11T07:23:22.871Z,23.78
2022-08-11T07:24:59.853Z,22.89
2022-08-11T07:26:23.027Z,23.07
2022-08-11T07:27:43.445Z,22.67
2022-08-11T07:28:56.640Z,24.21
2022-08-11T07:29:57.988Z,24.39
2022-08-11T07:31:03.482Z,24.35
2022-08-11T07:32:14.467Z,23.28
2022-08-11T07:34:07.191Z,23.05
2022-08-11T07:34:45.780Z,23.92
2022-08-11T07:35:49.699Z,23.75
2022-08-11T07:36:52.362Z,24.16
2022-08-11T07:38:02.239Z,24.99
2022-08-11T07:39:01.592Z,24.47
2022-08-11T07:40:00.767Z,25.33
2022-08-11T07:40:59.990Z,25.50
2022-08-11T07:41:59.112Z,24.82
2022-08-11T07:42:59.681Z,24.38
2022-08-11T07:44:09.010Z,24.86
2022-08-11T07:45:26.572Z,23.62
2022-08-11T07:46:42.794Z,24.71
2022-08-11T07:47:59.627Z,24.66
2022-08-11T07:49:16.473Z,24.05
2022-08-11T07:50:32.830Z,23.37
2022-08-11T07:51:48.247Z,24.03
2022-08-11T07:52:47.305Z,25.23
2022-08-11T07:53:58.541Z,25.44
2022-08-11T07:55:08.446Z,25.02
2022-08-11T07:56:08.321Z,25.96
2022-08-11T07:58:04.419Z,26.24
2022-08-11T07:59:08.444Z,24.68
2022-08-11T08:00:25.755Z,24.64
2022-08-11T08:01:48.680Z,24.60
2022-08-11T08:03:04.993Z,24.33
2022-08-11T08:04:20.867Z,25.06
2022-08-11T08:05:38.309Z,25.18
2022-08-11T08:06:56.136Z,24.40
2022-08-11T08:08:11.373Z,24.06
2022-08-11T08:09:30.374Z,24.99
2022-08-11T08:10:47.641Z,25.05
2022-08-11T08:12:04.910Z,25.03
2022-08-11T08:13:20.889Z,25.31
2022-08-11T08:14:36.605Z,24.80
2022-08-11T08:15:52.328Z,25.64
2022-08-11T08:17:08.162Z,25.38
2022-08-11T08:18:09.567Z,24.95
2022-08-11T08:19:25.107Z,24.17
2022-08-11T08:20:26.978Z,24.67
2022-08-11T08:21:24.238Z,24.47
2022-08-11T08:22:38.217Z,25.13
2022-08-11T08:23:37.396Z,25.53
2022-08-11T08:24:34.950Z,24.66
2022-08-11T08:25:39.347Z,25.21
2022-08-11T08:26:56.378Z,24.94
2022-08-11T08:27:56.445Z,24.49
2022-08-11T08:29:16.005Z,24.98
2022-08-11T08:30:32.677Z,24.86
2022-08-11T08:31:29.611Z,25.34
2022-08-11T08:32:28.350Z,25.81
2022-08-11T08:33:31.296Z,26.05
2022-08-11T08:34:28.872Z,25.55
2022-08-11T08:35:32.941Z,25.80
2022-08-11T08:36:30.434Z,25.24
2022-08-11T08:37:46.009Z,26.06
2022-08-11T08:38:50.165Z,25.64
2022-08-11T08:39:48.360Z,25.00
2022-08-11T08:40:46.890Z,25.13
2022-08-11T08:41:45.791Z,25.16
2022-08-11T08:42:51.698Z,25.39
2022-08-11T08:43:53.676Z,24.77
2022-08-11T08:45:06.464Z,24.57
2022-08-11T08:46:09.975Z,24.64
2022-08-11T08:47:10.676Z,24.45
2022-08-11T08:48:14.725Z,24.94
2022-08-11T08:49:19.514Z,24.80
2022-08-11T08:50:21.651Z,24.78
2022-08-11T08:52:01.070Z,24.77
2022-08-11T08:53:06.416Z,24.49
2022-08-11T08:54:28.602Z,24.35
2022-08-11T08:55:29.458Z,24.56
2022-08-11T08:56:29.018Z,23.82
2022-08-11T08:57:39.586Z,24.75
2022-08-11T08:58:40.714Z,24.32
2022-08-11T08:59:48.466Z,25.60
2022-08-11T09:00:52.959Z,24.81
2022-08-11T09:01:57.611Z,25.29
2022-08-11T09:02:55.313Z,24.11
2022-08-11T09:04:04.807Z,24.54
2022-08-11T09:05:09.117Z,24.17
2022-08-11T09:06:06.896Z,25.14
2022-08-11T09:07:11.746Z,24.82
2022-08-11T09:08:11.870Z,25.33
2022-08-11T09:09:12.388Z,25.54
2022-08-11T09:10:11.492Z,25.98
2022-08-11T09:11:30.891Z,25.63
2022-08-11T09:12:38.595Z,25.37
2022-08-11T09:13:36.998Z,25.15
2022-08-11T09:14:55.805Z,25.27
2022-08-11T09:15:56.299Z,24.81
2022-08-11T09:16:54.484Z,25.07
2022-08-11T09:18:06.155Z,25.34
2022-08-11T09:19:04.353Z,24.85
2022-08-11T09:20:09.633Z,24.53
2022-08-11T09:21:08.066Z,24.81
2022-08-11T09:22:24.518Z,25.14
2022-08-11T09:25:16.858Z,25.62
2022-08-11T09:26:34.422Z,25.31
2022-08-11T09:27:33.128Z,25.31
2022-08-11T09:28:31.511Z,25.16
2022-08-11T09:29:33.078Z,25.38
2022-08-11T09:30:30.190Z,25.60
2022-08-11T09:31:38.703Z,25.38
2022-08-11T09:32:40.435Z,24.36
2022-08-11T09:33:38.425Z,24.88
2022-08-11T09:34:39.653Z,25.44
2022-08-11T09:35:38.768Z,25.23
2022-08-11T09:36:54.474Z,24.71
2022-08-11T09:38:10.482Z,24.61
2022-08-11T09:39:27.749Z,25.52
2022-08-11T09:40:29.495Z,25.58
2022-08-11T09:41:26.502Z,25.11
2022-08-11T09:43:03.623Z,25.62
2022-08-11T09:44:21.082Z,26.02
2022-08-11T09:45:19.282Z,25.42
2022-08-11T09:46:23.546Z,26.00
2022-08-11T09:47:24.713Z,25.98
2022-08-11T09:48:24.902Z,25.28
2022-08-11T09:49:22.624Z,25.72
2022-08-11T09:50:20.520Z,25.49
2022-08-11T09:51:22.824Z,25.59
2022-08-11T09:52:22.841Z,24.71
2022-08-11T09:53:37.365Z,25.44
2022-08-11T09:54:38.329Z,25.90
2022-08-11T09:55:35.660Z,26.19
2022-08-11T09:56:52.755Z,26.24
2022-08-11T09:58:07.982Z,25.97
2022-08-11T09:59:06.255Z,25.67
2022-08-11T10:00:12.372Z,25.82
2022-08-11T10:01:27.308Z,25.62
2022-08-11T10:02:30.284Z,25.49
2022-08-11T10:03:30.214Z,25.59
2022-08-11T10:04:47.621Z,25.29
2022-08-11T10:06:08.203Z,25.07
2022-08-11T10:07:09.736Z,25.06
2022-08-11T10:08:12.510Z,24.04
2022-08-11T10:09:12.071Z,24.52
2022-08-11T10:10:11.032Z,24.89
2022-08-11T10:11:14.079Z,25.12
2022-08-11T10:12:25.072Z,24.41
2022-08-11T10:14:09.288Z,24.86
2022-08-11T10:15:11.444Z,24.46
2022-08-11T10:16:15.551Z,25.28
2022-08-11T10:17:16.905Z,25.26
2022-08-11T10:18:42.285Z,25.65
2022-08-11T10:19:42.298Z,26.02
2022-08-11T10:20:41.217Z,25.77
2022-08-11T10:21:43.883Z,25.83
2022-08-11T10:23:01.420Z,26.14
2022-08-11T10:24:19.300Z,26.38
2022-08-11T10:25:35.616Z,26.39
2022-08-11T10:26:53.560Z,26.29
2022-08-11T10:28:28.775Z,26.05
2022-08-11T10:29:37.597Z,26.11
2022-08-11T10:31:00.085Z,26.21
2022-08-11T10:32:17.492Z,25.88
2022-08-11T10:33:42.842Z,25.73
2022-08-11T10:34:49.642Z,25.51
2022-08-11T10:35:52.206Z,25.64
2022-08-11T10:36:49.571Z,25.52
2022-08-11T10:38:08.523Z,25.27
2022-08-11T10:39:06.793Z,25.55
2022-08-11T10:40:06.975Z,25.28
2022-08-11T10:41:25.397Z,25.31
2022-08-11T10:42:57.369Z,25.82
2022-08-11T10:44:02.655Z,25.72
2022-08-11T10:45:04.098Z,25.93
2022-08-11T10:46:29.980Z,26.07
2022-08-11T10:47:38.382Z,26.06
2022-08-11T10:48:46.756Z,25.10
2022-08-11T10:49:44.037Z,25.42
2022-08-11T10:51:05.628Z,25.70
2022-08-11T10:52:21.881Z,24.33
2022-08-11T10:53:39.255Z,25.57
2022-08-11T10:54:55.978Z,25.69
2022-08-11T10:56:13.260Z,25.73
2022-08-11T10:57:30.674Z,25.27
2022-08-11T10:58:47.075Z,25.66
2022-08-11T10:59:47.211Z,25.52
2022-08-11T11:00:45.540Z,25.88
2022-08-11T11:01:45.183Z,26.25
2022-08-11T11:02:44.795Z,26.32
2022-08-11T11:04:07.990Z,26.08
2022-08-11T11:05:16.637Z,26.48
2022-08-11T11:06:32.055Z,26.33
2022-08-11T11:07:44.210Z,25.91
2022-08-11T11:08:53.364Z,25.77
2022-08-11T11:09:56.149Z,25.76
2022-08-11T11:10:53.874Z,26.28
2022-08-11T11:12:17.407Z,26.28
2022-08-11T11:13:33.264Z,25.80
2022-08-11T11:14:56.457Z,26.21
2022-08-11T11:16:14.165Z,26.31
2022-08-11T11:17:14.229Z,25.73
2022-08-11T11:18:19.747Z,26.04
2022-08-11T11:19:23.973Z,25.69
2022-08-11T11:20:35.791Z,25.84
2022-08-11T11:21:38.901Z,25.68
2022-08-11T11:22:42.461Z,25.97
2022-08-11T11:24:14.455Z,25.80
2022-08-11T11:25:21.795Z,25.93
2022-08-11T11:26:39.691Z,26.07
2022-08-11T11:27:50.242Z,26.05
2022-08-11T11:28:58.772Z,26.20
2022-08-11T11:30:08.680Z,26.28
2022-08-11T11:31:22.342Z,26.29
2022-08-11T11:32:35.313Z,26.36
2022-08-11T11:34:12.692Z,26.57
2022-08-11T11:35:15.768Z,26.80
2022-08-11T11:36:51.781Z,26.63
2022-08-11T11:38:03.866Z,26.51
2022-08-11T11:39:02.864Z,25.84
2022-08-11T11:40:01.127Z,26.38
2022-08-11T11:41:17.884Z,26.60
2022-08-11T11:42:16.794Z,26.95
2022-08-11T11:43:13.801Z,27.13
2022-08-11T11:44:14.407Z,27.06
2022-08-11T11:45:23.363Z,27.10
2022-08-11T11:46:25.964Z,26.78
2022-08-11T11:47:26.765Z,26.17
2022-08-11T11:48:28.630Z,26.64
2022-08-11T11:49:29.661Z,25.88
2022-08-11T11:50:31.557Z,26.67
2022-08-11T11:51:30.472Z,26.42
2022-08-11T11:52:28.737Z,26.29
2022-08-11T11:53:26.350Z,26.40
2022-08-11T11:54:30.067Z,26.50
2022-08-11T11:55:29.713Z,26.33
2022-08-11T11:56:26.866Z,26.18
2022-08-11T11:57:59.212Z,26.27
2022-08-11T11:59:18.884Z,26.07
2022-08-11T12:00:34.683Z,26.08
2022-08-11T12:01:34.037Z,26.02
2022-08-11T12:02:31.367Z,25.89
2022-08-11T12:03:29.216Z,26.13
2022-08-11T12:04:28.095Z,25.59
2022-08-11T12:05:26.609Z,26.01
2022-08-11T12:06:25.507Z,26.12
2022-08-11T12:07:42.686Z,26.08
2022-08-11T12:08:41.170Z,25.72
2022-08-11T12:09:40.021Z,25.77
2022-08-11T12:10:37.462Z,26.23
2022-08-11T12:11:53.366Z,26.35
2022-08-11T12:13:10.059Z,26.31
2022-08-11T12:14:10.333Z,26.47
2022-08-11T12:15:09.398Z,26.71
2022-08-11T12:16:34.074Z,25.89
2022-08-11T12:17:26.387Z,26.10
2022-08-11T12:18:24.119Z,26.23
2022-08-11T12:19:25.696Z,26.67
2022-08-11T12:20:33.158Z,26.60
2022-08-11T12:21:32.526Z,26.23
2022-08-11T12:22:49.007Z,26.42
2022-08-11T12:24:07.849Z,26.53
2022-08-11T12:25:25.018Z,26.23
2022-08-11T12:26:42.259Z,27.24
2022-08-11T12:27:40.655Z,27.41
2022-08-11T12:28:40.117Z,26.91
2022-08-11T12:29:41.166Z,26.19
2022-08-11T12:31:44.960Z,26.84
2022-08-11T12:32:44.318Z,27.60
2022-08-11T12:33:43.881Z,27.19
2022-08-11T12:34:41.067Z,26.97
2022-08-11T12:35:38.458Z,26.77
2022-08-11T12:36:41.732Z,26.37
2022-08-11T12:37:43.717Z,26.84
2022-08-11T12:38:40.751Z,26.92
2022-08-11T12:40:10.781Z,26.41
2022-08-11T12:41:34.001Z,25.94
2022-08-11T12:42:56.432Z,26.24
2022-08-11T12:44:12.716Z,26.26
2022-08-11T12:45:29.101Z,25.96
2022-08-11T12:46:32.861Z,26.09
2022-08-11T12:48:14.008Z,25.61
2022-08-11T12:49:43.221Z,25.41
2022-08-11T12:51:02.393Z,25.07
2022-08-11T12:52:17.240Z,25.27
2022-08-11T12:53:14.714Z,25.30
2022-08-11T12:54:11.450Z,25.38
2022-08-11T12:55:34.712Z,24.66
2022-08-11T12:56:58.270Z,25.25
2022-08-11T12:58:13.818Z,25.17
2022-08-11T12:59:30.036Z,25.07
2022-08-11T13:00:48.723Z,25.10
2022-08-11T13:02:05.015Z,24.56
2022-08-11T13:03:24.164Z,25.08
2022-08-11T13:04:39.905Z,25.12
2022-08-11T13:05:44.690Z,25.01
2022-08-11T13:06:43.239Z,25.07
2022-08-11T13:07:50.933Z,24.78
2022-08-11T13:08:49.703Z,24.47
2022-08-11T13:09:47.377Z,24.91
2022-08-11T13:11:05.472Z,25.12
2022-08-11T13:12:21.095Z,25.07
2022-08-11T13:13:54.066Z,25.45
2022-08-11T13:14:37.934Z,24.81
2022-08-11T13:15:39.148Z,25.05
2022-08-11T13:16:57.070Z,24.97
2022-08-11T13:17:55.865Z,24.89
2022-08-11T13:18:53.921Z,25.16
2022-08-11T13:19:53.415Z,25.23
2022-08-11T13:20:54.358Z,25.22
2022-08-11T13:21:54.446Z,24.91
2022-08-11T13:22:55.560Z,25.13
2022-08-11T13:24:01.886Z,25.10
2022-08-11T13:24:59.901Z,25.28
2022-08-11T13:25:58.039Z,24.42
2022-08-11T13:26:56.291Z,25.00
2022-08-11T13:28:01.182Z,25.05
2022-08-11T13:28:58.838Z,25.20
2022-08-11T13:30:16.348Z,25.20
2022-08-11T13:31:15.155Z,25.06
2022-08-11T13:32:12.324Z,25.23
2022-08-11T13:33:11.108Z,25.04
2022-08-11T13:34:09.040Z,24.95
2022-08-11T13:35:08.370Z,25.33
2022-08-11T13:36:06.635Z,25.27
2022-08-11T13:37:05.574Z,25.32
2022-08-11T13:38:18.949Z,25.56
2022-08-11T13:39:25.914Z,25.50
2022-08-11T13:40:33.158Z,25.50
2022-08-11T13:41:45.275Z,25.66
2022-08-11T13:42:44.184Z,25.72
2022-08-11T13:43:45.620Z,25.68
2022-08-11T13:44:44.339Z,25.55
2022-08-11T13:45:44.017Z,25.77
2022-08-11T13:46:44.455Z,25.92
2022-08-11T13:47:43.395Z,25.63
2022-08-11T13:48:42.330Z,25.89
2022-08-11T13:49:41.830Z,26.00
2022-08-11T13:50:58.262Z,25.85
2022-08-11T13:51:56.928Z,25.61
2022-08-11T13:52:53.835Z,25.63
2022-08-11T13:53:52.243Z,25.73
2022-08-11T13:54:56.107Z,25.70
2022-08-11T13:55:55.009Z,25.66
2022-08-11T13:56:56.341Z,25.89
2022-08-11T13:58:08.876Z,25.78
2022-08-11T13:59:14.380Z,26.17
2022-08-11T14:00:12.900Z,26.05
2022-08-11T14:02:19.143Z,25.97
2022-08-11T14:02:30.770Z,25.46
2022-08-11T14:04:29.049Z,26.18
2022-08-11T14:04:59.363Z,26.20
2022-08-11T14:06:03.130Z,25.54
2022-08-11T14:07:06.613Z,25.95
2022-08-11T14:08:09.634Z,26.09
2022-08-11T14:09:37.178Z,26.29
2022-08-11T14:10:38.566Z,26.31
2022-08-11T14:12:22.402Z,26.26
2022-08-11T14:13:41.274Z,26.18
2022-08-11T14:14:39.872Z,26.28
2022-08-11T14:15:42.030Z,26.57
2022-08-11T14:16:43.168Z,26.69
2022-08-11T14:17:48.715Z,26.18
2022-08-11T14:18:51.608Z,26.07
2022-08-11T14:19:53.503Z,24.91
2022-08-11T14:21:15.055Z,26.07
2022-08-11T14:22:16.316Z,25.45
2022-08-11T14:23:16.144Z,25.90
2022-08-11T14:24:16.538Z,25.67
2022-08-11T14:25:18.259Z,25.94
2022-08-11T14:26:23.906Z,26.23
2022-08-11T14:28:30.078Z,25.61
2022-08-11T14:28:44.934Z,26.04
2022-08-11T14:29:48.736Z,25.86
2022-08-11T14:31:00.458Z,26.19
2022-08-11T14:32:04.090Z,26.23
2022-08-11T14:33:01.979Z,25.21
2022-08-11T14:34:16.265Z,25.88
2022-08-11T14:35:14.098Z,26.19
2022-08-11T14:36:12.355Z,26.36
2022-08-11T14:37:12.774Z,26.35
2022-08-11T14:38:10.474Z,25.96
2022-08-11T14:39:12.840Z,25.85
2022-08-11T14:40:31.822Z,26.14
2022-08-11T14:42:11.229Z,26.18
2022-08-11T14:44:10.441Z,25.34
2022-08-11T14:45:03.697Z,25.39
2022-08-11T14:46:26.948Z,25.41
2022-08-11T14:47:27.552Z,26.04
2022-08-11T14:48:26.643Z,26.01
2022-08-11T14:49:24.508Z,25.40
2022-08-11T14:50:24.938Z,25.93
2022-08-11T14:51:24.002Z,25.63
2022-08-11T14:52:21.191Z,26.05
2022-08-11T14:53:22.463Z,25.62
2022-08-11T14:54:38.348Z,25.03
2022-08-11T14:56:02.183Z,25.93
2022-08-11T14:57:00.661Z,24.76
2022-08-11T14:57:59.481Z,26.09
2022-08-11T14:58:56.715Z,26.36
2022-08-11T14:59:57.449Z,26.28
2022-08-11T15:00:59.031Z,26.30
2022-08-11T15:02:15.448Z,26.32
2022-08-11T15:03:16.054Z,26.37
2022-08-11T15:04:34.836Z,26.37
2022-08-11T15:05:31.906Z,25.62
2022-08-11T15:06:29.488Z,26.48
2022-08-11T15:07:29.997Z,25.76
2022-08-11T15:08:49.247Z,26.35
2022-08-11T15:10:11.753Z,26.22
2022-08-11T15:11:24.021Z,26.14
2022-08-11T15:12:31.218Z,26.33
2022-08-11T15:13:33.219Z,26.32
2022-08-11T15:14:49.372Z,25.62
2022-08-11T15:16:11.345Z,26.17
2022-08-11T15:17:10.199Z,25.89
2022-08-11T15:18:13.013Z,26.04
2022-08-11T15:19:10.898Z,25.78
2022-08-11T15:20:35.346Z,25.51
2022-08-11T15:21:50.748Z,26.09
2022-08-11T15:23:06.842Z,25.91
2022-08-11T15:24:19.388Z,25.75
2022-08-11T15:25:16.594Z,25.79
2022-08-11T15:26:45.611Z,25.78
2022-08-11T15:28:07.408Z,25.39
2022-08-11T15:29:23.631Z,25.54
2022-08-11T15:30:40.836Z,25.15
2022-08-11T15:31:44.292Z,25.21
2022-08-11T15:33:08.166Z,25.71
2022-08-11T15:34:27.442Z,25.53
2022-08-11T15:35:45.635Z,25.60
2022-08-11T15:37:05.804Z,25.66
2022-08-11T15:38:06.861Z,25.51
2022-08-11T15:39:20.914Z,25.36
2022-08-11T15:40:41.122Z,25.42
2022-08-11T15:42:08.751Z,24.71
2022-08-11T15:43:43.158Z,25.46